createdAt,value
2018-09-06T00:00:55.511Z,59.88
2018-09-06T00:01:55.494Z,59.78
2018-09-06T00:02:55.449Z,60.08
2018-09-06T00:03:55.438Z,60.58
2018-09-06T00:04:55.525Z,62.11
2018-09-06T00:05:55.424Z,61.91
2018-09-06T00:06:55.434Z,62.01
2018-09-06T00:07:55.404Z,63.11
2018-09-06T00:08:55.381Z,64.12
2018-09-06T00:09:55.376Z,63.92
2018-09-06T00:10:55.361Z,64.72
2018-09-06T00:11:55.413Z,65.05
2018-09-06T00:12:55.346Z,65.35
2018-09-06T00:13:55.327Z,65.05
2018-09-06T00:14:55.315Z,66.35
2018-09-06T00:15:55.337Z,65.85
2018-09-06T00:16:55.302Z,66.85
2018-09-06T00:17:55.291Z,67.05
2018-09-06T00:18:55.314Z,67.55
2018-09-06T00:19:55.266Z,67.45
2018-09-06T00:20:55.294Z,68.65
2018-09-06T00:21:55.245Z,69.09
2018-09-06T00:22:55.237Z,69.16
2018-09-06T00:23:55.226Z,69.19
2018-09-06T00:24:55.259Z,70.09
2018-09-06T00:25:55.202Z,69.79
2018-09-06T00:26:55.185Z,69.89
2018-09-06T00:27:55.254Z,70.89
2018-09-06T00:28:55.162Z,70.19
2018-09-06T00:29:55.164Z,71.30
2018-09-06T00:30:55.144Z,71.20
2018-09-06T00:31:55.132Z,71.00
2018-09-06T00:32:55.156Z,70.89
2018-09-06T00:33:55.116Z,71.09
2018-09-06T00:34:55.119Z,71.50
2018-09-06T00:35:55.090Z,71.59
2018-09-06T00:36:55.110Z,72.00
2018-09-06T00:37:55.077Z,71.80
2018-09-06T00:38:55.059Z,73.13
2018-09-06T00:39:55.044Z,73.13
2018-09-06T00:40:55.032Z,72.94
2018-09-06T00:41:55.056Z,73.33
2018-09-06T00:42:55.015Z,73.54
2018-09-06T00:43:54.999Z,73.03
2018-09-06T00:44:54.988Z,73.13
2018-09-06T00:45:55.007Z,73.64
2018-09-06T00:46:54.971Z,73.33
2018-09-06T00:47:54.967Z,73.33
2018-09-06T00:48:54.944Z,73.54
2018-09-06T00:49:54.936Z,73.97
2018-09-06T00:50:54.959Z,73.77
2018-09-06T00:51:54.916Z,73.87
2018-09-06T00:52:54.906Z,73.67
2018-09-06T00:53:54.930Z,74.07
2018-09-06T00:54:54.916Z,74.27
2018-09-06T00:55:54.863Z,73.97
2018-09-06T00:56:54.855Z,74.37
2018-09-06T00:57:54.843Z,74.37
2018-09-06T00:58:54.863Z,74.48
2018-09-06T00:59:54.822Z,74.37
2018-09-06T01:00:54.815Z,74.31
2018-09-06T01:01:54.809Z,74.51
2018-09-06T01:02:54.788Z,74.37
2018-09-06T01:03:54.807Z,74.57
2018-09-06T01:04:54.768Z,74.01
2018-09-06T01:05:54.757Z,74.07
2018-09-06T01:06:54.755Z,74.18
2018-09-06T01:07:54.768Z,73.97
2018-09-06T01:08:54.756Z,73.97
2018-09-06T01:09:54.735Z,73.97
2018-09-06T01:10:54.707Z,74.07
2018-09-06T01:11:54.690Z,74.48
2018-09-06T01:12:54.694Z,74.37
2018-09-06T01:13:54.699Z,74.68
2018-09-06T01:14:54.689Z,73.97
2018-09-06T01:15:54.655Z,74.77
2018-09-06T01:16:54.639Z,74.61
2018-09-06T01:17:54.626Z,74.61
2018-09-06T01:18:54.652Z,74.41
2018-09-06T01:19:54.604Z,74.81
2018-09-06T01:20:54.599Z,74.61
2018-09-06T01:21:54.583Z,74.81
2018-09-06T01:22:54.575Z,75.51
2018-09-06T01:23:54.609Z,75.21
2018-09-06T01:24:54.553Z,75.62
2018-09-06T01:25:54.561Z,75.62
2018-09-06T01:26:54.537Z,75.51
2018-09-06T01:27:54.518Z,75.71
2018-09-06T01:28:54.565Z,75.51
2018-09-06T01:29:54.496Z,75.92
2018-09-06T01:30:54.524Z,75.62
2018-09-06T01:31:54.480Z,75.62
2018-09-06T01:32:54.477Z,75.82
2018-09-06T01:33:54.489Z,75.82
2018-09-06T01:34:54.481Z,75.51
2018-09-06T01:35:54.461Z,75.51
2018-09-06T01:36:54.447Z,75.62
2018-09-06T01:37:54.423Z,75.62
2018-09-06T01:38:54.399Z,75.62
2018-09-06T01:39:54.417Z,75.92
2018-09-06T01:40:54.420Z,75.92
2018-09-06T01:41:54.368Z,75.62
2018-09-06T01:42:54.360Z,75.82
2018-09-06T01:43:54.365Z,75.78
2018-09-06T01:44:54.897Z,75.62
2018-09-06T01:45:54.338Z,75.62
2018-09-06T01:46:54.316Z,75.71
2018-09-06T01:47:54.337Z,75.92
2018-09-06T01:48:54.291Z,75.68
2018-09-06T01:49:54.321Z,75.71
2018-09-06T01:50:54.263Z,75.82
2018-09-06T01:51:54.254Z,75.71
2018-09-06T01:52:54.244Z,75.48
2018-09-06T01:53:54.270Z,75.48
2018-09-06T01:54:54.243Z,74.88
2018-09-06T01:55:54.244Z,74.77
2018-09-06T01:56:54.202Z,74.68
2018-09-06T01:57:54.189Z,75.01
2018-09-06T01:58:54.183Z,74.68
2018-09-06T01:59:54.167Z,74.57
2018-09-06T02:00:54.282Z,74.57
2018-09-06T02:01:54.148Z,74.37
2018-09-06T02:02:54.938Z,74.81
2018-09-06T02:03:54.144Z,73.97
2018-09-06T02:04:54.110Z,74.88
2018-09-06T02:05:54.133Z,74.61
2018-09-06T02:06:54.110Z,74.61
2018-09-06T02:07:54.106Z,75.01
2018-09-06T02:08:54.068Z,74.77
2018-09-06T02:09:54.058Z,75.21
2018-09-06T02:10:54.050Z,75.11
2018-09-06T02:11:54.039Z,75.11
2018-09-06T02:12:54.065Z,75.11
2018-09-06T02:13:54.019Z,75.48
2018-09-06T02:14:54.035Z,75.31
2018-09-06T02:15:53.995Z,75.71
2018-09-06T02:16:53.979Z,75.92
2018-09-06T02:17:53.976Z,75.62
2018-09-06T02:18:53.992Z,76.21
2018-09-06T02:19:53.943Z,76.42
2018-09-06T02:20:53.945Z,76.02
2018-09-06T02:21:53.930Z,75.82
2018-09-06T02:22:53.946Z,76.52
2018-09-06T02:23:53.927Z,76.62
2018-09-06T02:24:53.979Z,76.72
2018-09-06T02:25:53.886Z,76.62
2018-09-06T02:26:53.869Z,76.72
2018-09-06T02:27:53.869Z,77.32
2018-09-06T02:28:53.855Z,77.12
2018-09-06T02:29:53.875Z,77.22
2018-09-06T02:30:53.832Z,78.33
2018-09-06T02:31:53.819Z,78.16
2018-09-06T02:32:53.814Z,78.77
2018-09-06T02:33:53.796Z,78.73
2018-09-06T02:34:53.822Z,78.93
2018-09-06T02:35:53.774Z,79.17
2018-09-06T02:36:53.765Z,79.03
2018-09-06T02:37:53.772Z,80.07
2018-09-06T02:38:53.742Z,79.77
2018-09-06T02:39:53.771Z,80.07
2018-09-06T02:40:53.724Z,80.74
2018-09-06T02:41:53.706Z,81.58
2018-09-06T02:42:53.706Z,81.78
2018-09-06T02:43:53.782Z,82.02
2018-09-06T02:44:53.779Z,83.18
2018-09-06T02:45:53.666Z,82.62
2018-09-06T02:46:53.650Z,83.23
2018-09-06T02:47:53.639Z,83.76
2018-09-06T02:48:53.633Z,84.13
2018-09-06T02:49:53.655Z,84.23
2018-09-06T02:50:53.608Z,84.97
2018-09-06T02:51:53.601Z,84.77
2018-09-06T02:52:53.588Z,85.28
2018-09-06T02:53:53.628Z,85.14
2018-09-06T02:54:53.593Z,86.58
2018-09-06T02:55:53.554Z,86.14
2018-09-06T02:56:53.549Z,86.08
2018-09-06T02:57:53.563Z,86.58
2018-09-06T02:58:53.520Z,86.99
2018-09-06T02:59:53.513Z,87.08
2018-09-06T03:00:53.539Z,87.69
2018-09-06T03:01:53.486Z,87.69
2018-09-06T03:02:53.478Z,88.13
2018-09-06T03:03:53.472Z,88.13
2018-09-06T03:04:53.468Z,88.64
2018-09-06T03:05:53.486Z,88.54
2018-09-06T03:06:53.432Z,88.54
2018-09-06T03:07:53.425Z,89.04
2018-09-06T03:08:53.441Z,89.04
2018-09-06T03:09:53.398Z,89.64
2018-09-06T03:10:53.388Z,89.54
2018-09-06T03:11:53.379Z,89.54
2018-09-06T03:12:53.375Z,89.54
2018-09-06T03:13:53.411Z,89.44
2018-09-06T03:14:53.345Z,89.95
2018-09-06T03:15:53.362Z,89.75
2018-09-06T03:16:53.354Z,89.54
2018-09-06T03:17:53.305Z,89.44
2018-09-06T03:18:53.295Z,89.75
2018-09-06T03:19:53.288Z,89.54
2018-09-06T03:20:53.304Z,89.79
2018-09-06T03:21:53.298Z,90.25
2018-09-06T03:22:53.268Z,89.84
2018-09-06T03:23:53.288Z,89.48
2018-09-06T03:24:53.229Z,89.54
2018-09-06T03:25:53.249Z,90.09
2018-09-06T03:26:53.206Z,89.44
2018-09-06T03:27:53.199Z,89.59
2018-09-06T03:28:53.213Z,89.54
2018-09-06T03:29:53.173Z,90.34
2018-09-06T03:30:53.202Z,89.89
2018-09-06T03:31:53.153Z,89.79
2018-09-06T03:32:53.152Z,90.29
2018-09-06T03:33:53.159Z,90.19
2018-09-06T03:34:53.173Z,89.89
2018-09-06T03:35:53.111Z,89.89
2018-09-06T03:36:53.203Z,89.99
2018-09-06T03:37:53.127Z,90.99
2018-09-06T03:38:53.080Z,90.59
2018-09-06T03:39:53.097Z,90.49
2018-09-06T03:40:53.049Z,90.39
2018-09-06T03:41:53.143Z,90.59
2018-09-06T03:42:53.051Z,90.69
2018-09-06T03:43:53.018Z,90.59
2018-09-06T03:44:53.043Z,90.99
2018-09-06T03:45:52.997Z,90.99
2018-09-06T03:46:52.982Z,89.99
2018-09-06T03:47:52.976Z,90.89
2018-09-06T03:48:52.991Z,90.69
2018-09-06T03:49:52.982Z,90.49
2018-09-06T03:50:52.948Z,90.09
2018-09-06T03:51:52.931Z,89.99
2018-09-06T03:52:52.942Z,90.09
2018-09-06T03:53:52.925Z,90.39
2018-09-06T03:54:52.989Z,90.99
2018-09-06T03:55:52.917Z,90.99
2018-09-06T03:56:52.871Z,90.49
2018-09-06T03:57:52.862Z,90.69
2018-09-06T03:58:59.910Z,90.69
2018-09-06T03:59:52.843Z,90.59
2018-09-06T04:00:52.954Z,91.30
2018-09-06T04:01:52.814Z,91.50
2018-09-06T04:02:52.838Z,91.39
2018-09-06T04:03:52.822Z,91.50
2018-09-06T04:04:52.785Z,91.09
2018-09-06T04:05:52.772Z,90.39
2018-09-06T04:06:52.759Z,90.29
2018-09-06T04:07:52.788Z,90.79
2018-09-06T04:08:52.737Z,91.19
2018-09-06T04:09:52.754Z,91.44
2018-09-06T04:10:52.720Z,91.44
2018-09-06T04:11:52.710Z,91.64
2018-09-06T04:12:52.696Z,91.54
2018-09-06T04:13:52.713Z,91.54
2018-09-06T04:14:52.674Z,91.54
2018-09-06T04:15:52.656Z,90.94
2018-09-06T04:16:52.702Z,91.24
2018-09-06T04:17:52.633Z,91.24
2018-09-06T04:18:52.627Z,91.50
2018-09-06T04:19:52.667Z,91.39
2018-09-06T04:20:52.605Z,91.30
2018-09-06T04:21:52.626Z,91.24
2018-09-06T04:22:52.583Z,91.50
2018-09-06T04:23:52.570Z,91.70
2018-09-06T04:24:52.559Z,91.90
2018-09-06T04:25:52.551Z,91.90
2018-09-06T04:26:52.571Z,91.80
2018-09-06T04:27:52.533Z,91.64
2018-09-06T04:28:52.511Z,91.54
2018-09-06T04:29:52.529Z,91.39
2018-09-06T04:30:52.487Z,91.39
2018-09-06T04:31:52.480Z,91.19
2018-09-06T04:32:52.472Z,90.99
2018-09-06T04:33:52.508Z,91.14
2018-09-06T04:34:52.445Z,90.49
2018-09-06T04:35:52.509Z,90.49
2018-09-06T04:36:52.427Z,90.69
2018-09-06T04:37:52.413Z,90.64
2018-09-06T04:38:52.442Z,90.84
2018-09-06T04:39:52.394Z,90.53
2018-09-06T04:40:52.406Z,91.24
2018-09-06T04:41:52.363Z,91.04
2018-09-06T04:42:52.360Z,91.24
2018-09-06T04:43:52.417Z,91.34
2018-09-06T04:44:52.333Z,91.64
2018-09-06T04:45:52.345Z,91.64
2018-09-06T04:46:52.311Z,91.28
2018-09-06T04:47:52.301Z,91.49
2018-09-06T04:48:52.322Z,91.69
2018-09-06T04:49:52.277Z,91.24
2018-09-06T04:50:52.306Z,91.58
2018-09-06T04:51:52.279Z,91.49
2018-09-06T04:52:52.244Z,91.74
2018-09-06T04:53:52.240Z,91.78
2018-09-06T04:54:52.228Z,92.09
2018-09-06T04:55:52.247Z,91.99
2018-09-06T04:56:52.299Z,91.69
2018-09-06T04:57:52.192Z,91.64
2018-09-06T04:58:52.212Z,91.58
2018-09-06T04:59:52.239Z,91.89
2018-09-06T05:00:52.157Z,91.94
2018-09-06T05:01:52.146Z,91.89
2018-09-06T05:02:52.129Z,91.69
2018-09-06T05:03:52.120Z,92.29
2018-09-06T05:04:52.142Z,91.64
2018-09-06T05:05:52.127Z,91.58
2018-09-06T05:06:52.091Z,91.58
2018-09-06T05:07:52.080Z,91.78
2018-09-06T05:08:52.065Z,91.99
2018-09-06T05:09:52.083Z,92.39
2018-09-06T05:10:52.063Z,92.59
2018-09-06T05:11:52.059Z,92.29
2018-09-06T05:12:52.096Z,92.29
2018-09-06T05:13:52.007Z,92.59
2018-09-06T05:14:52.001Z,92.39
2018-09-06T05:15:52.025Z,92.49
2018-09-06T05:16:52.018Z,92.49
2018-09-06T05:17:51.967Z,92.09
2018-09-06T05:18:51.982Z,91.78
2018-09-06T05:19:51.943Z,92.39
2018-09-06T05:20:51.932Z,92.09
2018-09-06T05:21:52.025Z,92.59
2018-09-06T05:22:51.945Z,92.39
2018-09-06T05:23:51.900Z,92.39
2018-09-06T05:24:51.896Z,92.09
2018-09-06T05:25:51.881Z,91.69
2018-09-06T05:26:51.868Z,91.58
2018-09-06T05:27:51.884Z,91.69
2018-09-06T05:28:51.846Z,91.89
2018-09-06T05:29:51.830Z,91.78
2018-09-06T05:30:51.912Z,92.09
2018-09-06T05:31:51.809Z,91.89
2018-09-06T05:32:51.827Z,92.29
2018-09-06T05:33:51.786Z,91.78
2018-09-06T05:34:51.777Z,91.78
2018-09-06T05:35:51.808Z,91.34
2018-09-06T05:36:51.797Z,91.54
2018-09-06T05:37:51.741Z,91.34
2018-09-06T05:38:51.771Z,91.64
2018-09-06T05:39:51.799Z,91.44
2018-09-06T05:40:51.714Z,91.54
2018-09-06T05:41:51.699Z,91.14
2018-09-06T05:42:51.684Z,90.94
2018-09-06T05:43:51.712Z,90.53
2018-09-06T05:44:51.663Z,90.73
2018-09-06T05:45:51.666Z,90.44
2018-09-06T05:46:51.664Z,90.44
2018-09-06T05:47:51.632Z,90.33
2018-09-06T05:48:51.654Z,89.83
2018-09-06T05:49:51.607Z,90.13
2018-09-06T05:50:51.598Z,90.53
2018-09-06T05:51:51.598Z,89.83
2018-09-06T05:52:51.575Z,89.73
2018-09-06T05:53:51.606Z,89.43
2018-09-06T05:54:51.555Z,89.53
2018-09-06T05:55:51.579Z,89.73
2018-09-06T05:56:51.531Z,89.63
2018-09-06T05:57:51.522Z,90.03
2018-09-06T05:58:51.554Z,89.83
2018-09-06T05:59:51.527Z,89.73
2018-09-06T06:00:51.502Z,89.63
2018-09-06T06:01:51.498Z,89.53
2018-09-06T06:02:51.459Z,89.73
2018-09-06T06:03:51.459Z,89.53
2018-09-06T06:04:51.436Z,89.73
2018-09-06T06:05:51.455Z,89.32
2018-09-06T06:06:51.413Z,89.43
2018-09-06T06:07:51.407Z,89.12
2018-09-06T06:08:51.399Z,89.32
2018-09-06T06:09:51.430Z,89.03
2018-09-06T06:10:51.373Z,89.12
2018-09-06T06:11:51.540Z,89.23
2018-09-06T06:12:51.349Z,89.63
2018-09-06T06:13:51.373Z,88.78
2018-09-06T06:14:51.370Z,88.68
2018-09-06T06:15:51.321Z,88.68
2018-09-06T06:16:51.335Z,89.32
2018-09-06T06:17:51.294Z,89.18
2018-09-06T06:18:51.284Z,89.39
2018-09-06T06:19:51.307Z,89.39
2018-09-06T06:20:51.324Z,89.43
2018-09-06T06:21:51.249Z,89.23
2018-09-06T06:22:51.237Z,89.69
2018-09-06T06:23:51.224Z,89.99
2018-09-06T06:24:51.212Z,89.79
2018-09-06T06:25:51.250Z,89.79
2018-09-06T06:26:51.200Z,89.28
2018-09-06T06:27:51.179Z,89.18
2018-09-06T06:28:51.170Z,89.39
2018-09-06T06:29:51.157Z,89.39
2018-09-06T06:30:51.173Z,88.98
2018-09-06T06:31:51.215Z,88.58
2018-09-06T06:32:51.168Z,89.08
2018-09-06T06:33:51.147Z,88.58
2018-09-06T06:34:51.100Z,88.38
2018-09-06T06:35:51.163Z,88.98
2018-09-06T06:36:51.082Z,88.58
2018-09-06T06:37:51.098Z,88.88
2018-09-06T06:38:51.057Z,89.04
2018-09-06T06:39:51.053Z,88.74
2018-09-06T06:40:51.068Z,88.54
2018-09-06T06:41:51.026Z,88.34
2018-09-06T06:42:51.012Z,88.84
2018-09-06T06:43:51.002Z,88.18
2018-09-06T06:44:50.993Z,87.83
2018-09-06T06:45:51.011Z,87.63
2018-09-06T06:46:50.966Z,87.63
2018-09-06T06:47:50.957Z,87.73
2018-09-06T06:48:50.947Z,87.73
2018-09-06T06:49:50.963Z,87.63
2018-09-06T06:50:50.921Z,87.67
2018-09-06T06:51:50.912Z,87.83
2018-09-06T06:52:50.908Z,87.77
2018-09-06T06:53:50.891Z,88.28
2018-09-06T06:54:50.939Z,88.84
2018-09-06T06:55:50.869Z,88.84
2018-09-06T06:56:50.851Z,88.34
2018-09-06T06:57:50.846Z,88.84
2018-09-06T06:58:50.840Z,87.73
2018-09-06T06:59:50.859Z,87.63
2018-09-06T07:00:50.814Z,88.34
2018-09-06T07:01:50.799Z,88.58
2018-09-06T07:02:50.792Z,88.38
2018-09-06T07:03:50.780Z,88.38
2018-09-06T07:04:50.797Z,88.48
2018-09-06T07:05:50.756Z,88.58
2018-09-06T07:06:50.831Z,88.58
2018-09-06T07:07:50.731Z,88.38
2018-09-06T07:08:50.751Z,89.18
2018-09-06T07:09:50.712Z,88.58
2018-09-06T07:10:50.734Z,88.68
2018-09-06T07:11:50.687Z,89.59
2018-09-06T07:12:50.676Z,89.32
2018-09-06T07:13:50.709Z,88.58
2018-09-06T07:14:50.653Z,88.72
2018-09-06T07:15:50.652Z,89.63
2018-09-06T07:16:50.629Z,89.43
2018-09-06T07:17:50.626Z,89.12
2018-09-06T07:18:50.647Z,88.62
2018-09-06T07:19:50.602Z,89.23
2018-09-06T07:20:50.618Z,89.43
2018-09-06T07:21:50.602Z,89.12
2018-09-06T07:22:50.565Z,89.43
2018-09-06T07:23:50.555Z,89.43
2018-09-06T07:24:50.543Z,89.08
2018-09-06T07:25:50.533Z,89.18
2018-09-06T07:26:50.550Z,89.39
2018-09-06T07:27:50.510Z,89.48
2018-09-06T07:28:50.497Z,88.48
2018-09-06T07:29:50.519Z,89.48
2018-09-06T07:30:50.486Z,88.18
2018-09-06T07:31:50.465Z,88.88
2018-09-06T07:32:50.459Z,88.88
2018-09-06T07:33:50.473Z,88.68
2018-09-06T07:34:50.444Z,88.78
2018-09-06T07:35:50.453Z,88.78
2018-09-06T07:36:50.416Z,88.48
2018-09-06T07:37:50.434Z,88.88
2018-09-06T07:38:50.397Z,89.08
2018-09-06T07:39:50.381Z,88.38
2018-09-06T07:40:50.366Z,88.72
2018-09-06T07:41:50.392Z,89.08
2018-09-06T07:42:50.346Z,89.08
2018-09-06T07:43:50.360Z,89.28
2018-09-06T07:44:50.325Z,89.28
2018-09-06T07:45:50.307Z,89.59
2018-09-06T07:46:50.351Z,89.59
2018-09-06T07:47:50.293Z,89.48
2018-09-06T07:48:50.322Z,89.79
2018-09-06T07:49:50.263Z,89.79
2018-09-06T07:50:51.036Z,89.79
2018-09-06T07:51:50.240Z,89.39
2018-09-06T07:52:50.232Z,89.48
2018-09-06T07:53:50.248Z,89.99
2018-09-06T07:54:50.209Z,89.48
2018-09-06T07:55:50.202Z,89.48
2018-09-06T07:56:50.226Z,89.39
2018-09-06T07:57:50.233Z,89.28
2018-09-06T07:58:50.205Z,89.69
2018-09-06T07:59:50.180Z,89.48
2018-09-06T08:00:50.182Z,89.99
2018-09-06T08:01:50.144Z,89.32
2018-09-06T08:02:50.130Z,89.48
2018-09-06T08:03:50.109Z,90.03
2018-09-06T08:04:50.100Z,89.79
2018-09-06T08:05:50.118Z,89.89
2018-09-06T08:06:50.074Z,90.03
2018-09-06T08:07:50.066Z,90.59
2018-09-06T08:08:50.049Z,89.83
2018-09-06T08:09:50.042Z,89.99
2018-09-06T08:10:50.064Z,90.29
2018-09-06T08:11:50.016Z,90.23
2018-09-06T08:12:50.008Z,90.53
2018-09-06T08:13:49.998Z,89.69
2018-09-06T08:14:49.987Z,89.73
2018-09-06T08:15:50.000Z,89.43
2018-09-06T08:16:49.961Z,89.28
2018-09-06T08:17:49.951Z,89.73
2018-09-06T08:18:50.015Z,89.43
2018-09-06T08:19:49.933Z,89.83
2018-09-06T08:20:49.952Z,88.82
2018-09-06T08:21:49.911Z,88.72
2018-09-06T08:22:49.925Z,89.12
2018-09-06T08:23:49.888Z,89.63
2018-09-06T08:24:49.873Z,89.63
2018-09-06T08:25:49.892Z,89.73
2018-09-06T08:26:49.851Z,89.63
2018-09-06T08:27:49.836Z,89.73
2018-09-06T08:28:49.829Z,89.83
2018-09-06T08:29:49.824Z,89.89
2018-09-06T08:30:49.962Z,89.12
2018-09-06T08:31:49.793Z,89.12
2018-09-06T08:32:49.813Z,89.43
2018-09-06T08:33:49.767Z,89.53
2018-09-06T08:34:49.763Z,90.23
2018-09-06T08:35:49.753Z,89.93
2018-09-06T08:36:49.796Z,90.73
2018-09-06T08:37:49.779Z,90.53
2018-09-06T08:38:49.717Z,90.94
2018-09-06T08:39:49.704Z,90.94
2018-09-06T08:40:49.692Z,90.44
2018-09-06T08:41:49.689Z,90.64
2018-09-06T08:42:49.698Z,90.73
2018-09-06T08:43:49.657Z,90.84
2018-09-06T08:44:49.675Z,90.73
2018-09-06T08:45:49.641Z,90.33
2018-09-06T08:46:49.665Z,90.44
2018-09-06T08:47:49.619Z,90.53
2018-09-06T08:48:49.607Z,91.04
2018-09-06T08:49:49.598Z,89.93
2018-09-06T08:50:49.616Z,90.64
2018-09-06T08:51:49.642Z,90.33
2018-09-06T08:52:49.557Z,89.93
2018-09-06T08:53:49.551Z,90.44
2018-09-06T08:54:49.539Z,90.73
2018-09-06T08:55:49.559Z,90.44
2018-09-06T08:56:49.509Z,91.04
2018-09-06T08:57:49.511Z,90.84
2018-09-06T08:58:49.496Z,90.13
2018-09-06T08:59:49.483Z,90.29
2018-09-06T09:00:49.508Z,89.79
2018-09-06T09:01:49.456Z,89.69
2018-09-06T09:02:49.667Z,89.69
2018-09-06T09:03:49.439Z,90.19
2018-09-06T09:04:49.433Z,90.39
2018-09-06T09:05:49.468Z,90.29
2018-09-06T09:06:49.407Z,89.59
2018-09-06T09:07:49.390Z,89.99
2018-09-06T09:08:49.402Z,89.39
2018-09-06T09:09:49.404Z,89.34
2018-09-06T09:10:49.404Z,89.34
2018-09-06T09:11:49.347Z,89.39
2018-09-06T09:12:49.391Z,89.54
2018-09-06T09:13:49.326Z,89.54
2018-09-06T09:14:49.317Z,89.24
2018-09-06T09:15:49.354Z,89.14
2018-09-06T09:16:49.288Z,89.04
2018-09-06T09:17:49.281Z,89.14
2018-09-06T09:18:49.280Z,89.34
2018-09-06T09:19:49.281Z,89.44
2018-09-06T09:20:49.288Z,89.14
2018-09-06T09:21:49.269Z,89.24
2018-09-06T09:22:49.221Z,89.14
2018-09-06T09:23:49.223Z,89.54
2018-09-06T09:24:49.238Z,89.54
2018-09-06T09:25:49.231Z,89.54
2018-09-06T09:26:49.216Z,89.64
2018-09-06T09:27:49.205Z,89.75
2018-09-06T09:28:49.165Z,89.60
2018-09-06T09:29:49.144Z,89.20
2018-09-06T09:30:49.161Z,89.30
2018-09-06T09:31:49.125Z,89.30
2018-09-06T09:32:49.113Z,88.70
2018-09-06T09:33:49.137Z,89.30
2018-09-06T09:34:49.090Z,89.10
2018-09-06T09:35:49.163Z,89.00
2018-09-06T09:36:49.073Z,89.50
2018-09-06T09:37:49.094Z,89.40
2018-09-06T09:38:49.047Z,89.50
2018-09-06T09:39:49.036Z,89.60
2018-09-06T09:40:49.027Z,89.34
2018-09-06T09:41:49.052Z,89.40
2018-09-06T09:42:49.002Z,89.60
2018-09-06T09:43:48.991Z,89.60
2018-09-06T09:44:48.978Z,90.41
2018-09-06T09:45:49.001Z,89.40
2018-09-06T09:47:48.512Z,88.59
2018-09-06T09:48:48.532Z,88.70
2018-09-06T09:49:48.491Z,88.39
2018-09-06T09:50:48.484Z,88.70
2018-09-06T09:51:48.469Z,88.79
2018-09-06T09:52:48.453Z,87.79
2018-09-06T09:53:48.476Z,88.49
2018-09-06T09:54:48.431Z,88.84
2018-09-06T09:55:48.424Z,89.54
2018-09-06T09:56:48.414Z,88.54
2018-09-06T09:57:48.435Z,87.53
2018-09-06T09:58:48.425Z,87.13
2018-09-06T09:59:48.391Z,87.47
2018-09-06T10:00:48.369Z,87.37
2018-09-06T10:01:48.367Z,88.58
2018-09-06T10:02:48.352Z,87.77
2018-09-06T10:03:48.411Z,87.57
2018-09-06T10:04:48.330Z,88.28
2018-09-06T10:05:48.312Z,88.28
2018-09-06T10:06:48.303Z,88.68
2018-09-06T10:07:48.333Z,88.43
2018-09-06T10:08:48.312Z,88.94
2018-09-06T10:09:48.266Z,88.94
2018-09-06T10:10:48.260Z,88.74
2018-09-06T10:11:48.255Z,88.34
2018-09-06T10:12:48.241Z,88.43
2018-09-06T10:13:48.256Z,87.93
2018-09-06T10:14:48.209Z,87.73
2018-09-06T10:15:48.743Z,88.34
2018-09-06T10:16:48.192Z,88.34
2018-09-06T10:17:48.215Z,88.54
2018-09-06T10:18:48.166Z,88.64
2018-09-06T10:19:48.154Z,88.64
2018-09-06T10:20:48.138Z,88.43
2018-09-06T10:21:48.126Z,88.64
2018-09-06T10:22:48.158Z,88.34
2018-09-06T10:23:48.118Z,89.34
2018-09-06T10:24:48.095Z,88.54
2018-09-06T10:25:48.136Z,89.04
2018-09-06T10:26:48.069Z,89.44
2018-09-06T10:27:48.060Z,89.54
2018-09-06T10:28:48.084Z,90.25
2018-09-06T10:29:48.043Z,90.05
2018-09-06T10:30:48.042Z,90.15
2018-09-06T10:31:48.030Z,89.75
2018-09-06T10:32:48.008Z,90.20
2018-09-06T10:33:48.027Z,89.90
2018-09-06T10:34:48.013Z,89.80
2018-09-06T10:35:47.985Z,90.30
2018-09-06T10:36:47.960Z,89.40
2018-09-06T10:37:47.954Z,88.90
2018-09-06T10:38:47.953Z,89.00
2018-09-06T10:39:48.031Z,89.70
2018-09-06T10:40:47.924Z,90.41
2018-09-06T10:41:47.907Z,90.11
2018-09-06T10:42:47.892Z,89.54
2018-09-06T10:43:47.884Z,89.34
2018-09-06T10:44:47.894Z,89.75
2018-09-06T10:45:47.889Z,89.64
2018-09-06T10:46:47.854Z,89.64
2018-09-06T10:47:47.878Z,89.95
2018-09-06T10:48:47.829Z,89.84
2018-09-06T10:49:47.822Z,90.45
2018-09-06T10:50:47.855Z,90.45
2018-09-06T10:51:47.791Z,89.95
2018-09-06T10:52:47.786Z,90.34
2018-09-06T10:53:47.784Z,89.24
2018-09-06T10:54:47.756Z,89.75
2018-09-06T10:55:47.895Z,90.15
2018-09-06T10:56:47.740Z,90.00
2018-09-06T10:57:48.291Z,89.64
2018-09-06T10:58:47.739Z,89.30
2018-09-06T10:59:47.701Z,89.00
2018-09-06T11:00:47.809Z,89.34
2018-09-06T11:01:47.677Z,89.20
2018-09-06T11:02:47.664Z,88.49
2018-09-06T11:03:47.653Z,88.29
2018-09-06T11:04:47.672Z,88.49
2018-09-06T11:05:47.664Z,88.29
2018-09-06T11:06:47.616Z,88.19
2018-09-06T11:07:47.703Z,88.59
2018-09-06T11:08:47.602Z,89.10
2018-09-06T11:09:47.584Z,88.70
2018-09-06T11:10:47.615Z,88.59
2018-09-06T11:11:47.636Z,88.29
2018-09-06T11:12:47.580Z,87.99
2018-09-06T11:13:47.540Z,88.70
2018-09-06T11:14:47.534Z,88.59
2018-09-06T11:15:47.521Z,88.39
2018-09-06T11:16:47.547Z,88.45
2018-09-06T11:17:47.506Z,88.15
2018-09-06T11:18:47.482Z,88.70
2018-09-06T11:19:47.569Z,88.85
2018-09-06T11:20:47.496Z,88.15
2018-09-06T11:21:47.555Z,88.45
2018-09-06T11:22:47.500Z,88.35
2018-09-06T11:23:47.424Z,88.35
2018-09-06T11:24:47.415Z,88.75
2018-09-06T11:25:47.436Z,88.55
2018-09-06T11:26:47.391Z,88.35
2018-09-06T11:27:47.396Z,87.45
2018-09-06T11:28:47.382Z,87.45
2018-09-06T11:29:47.372Z,88.25
2018-09-06T11:30:47.387Z,89.06
2018-09-06T11:31:47.335Z,87.95
2018-09-06T11:32:47.382Z,87.55
2018-09-06T11:33:47.323Z,87.55
2018-09-06T11:34:47.307Z,88.15
2018-09-06T11:35:47.294Z,87.49
2018-09-06T11:36:47.284Z,87.55
2018-09-06T11:37:47.290Z,87.45
2018-09-06T11:38:47.265Z,87.35
2018-09-06T11:39:47.245Z,87.55
2018-09-06T11:40:47.243Z,87.55
2018-09-06T11:41:47.262Z,87.15
2018-09-06T11:42:47.214Z,87.15
2018-09-06T11:43:47.206Z,87.04
2018-09-06T11:44:47.193Z,86.94
2018-09-06T11:45:47.184Z,86.94
2018-09-06T11:46:47.318Z,86.94
2018-09-06T11:47:47.260Z,87.45
2018-09-06T11:48:47.175Z,87.24
2018-09-06T11:49:47.138Z,87.04
2018-09-06T11:50:47.119Z,86.80
2018-09-06T11:51:47.112Z,87.10
2018-09-06T11:52:47.134Z,87.45
2018-09-06T11:53:47.107Z,87.30
2018-09-06T11:54:47.109Z,87.60
2018-09-06T11:55:47.104Z,87.41
2018-09-06T11:56:47.055Z,86.74
2018-09-06T11:57:47.050Z,86.04
2018-09-06T11:58:47.039Z,85.30
2018-09-06T11:59:47.082Z,85.14
2018-09-06T12:00:47.013Z,85.60
2018-09-06T12:01:46.998Z,85.50
2018-09-06T12:02:46.990Z,85.03
2018-09-06T12:03:46.982Z,83.79
2018-09-06T12:04:47.012Z,84.29
2018-09-06T12:05:46.997Z,83.49
2018-09-06T12:06:46.949Z,83.39
2018-09-06T12:07:46.932Z,83.29
2018-09-06T12:08:46.932Z,83.23
2018-09-06T12:09:46.917Z,84.23
2018-09-06T12:10:46.949Z,84.49
2018-09-06T12:11:46.917Z,84.03
2018-09-06T12:12:46.888Z,84.19
2018-09-06T12:13:46.932Z,83.63
2018-09-06T12:14:46.862Z,84.49
2018-09-06T12:15:46.845Z,83.63
2018-09-06T12:16:46.880Z,84.49
2018-09-06T12:17:46.827Z,83.79
2018-09-06T12:18:46.841Z,85.33
2018-09-06T12:19:46.800Z,84.63
2018-09-06T12:20:46.788Z,83.99
2018-09-06T12:21:46.810Z,82.89
2018-09-06T12:22:46.767Z,82.64
2018-09-06T12:23:46.767Z,82.78
2018-09-06T12:24:46.740Z,82.64
2018-09-06T12:25:46.837Z,82.14
2018-09-06T12:26:46.725Z,81.68
2018-09-06T12:27:46.712Z,82.64
2018-09-06T12:28:46.730Z,82.64
2018-09-06T12:29:46.695Z,82.45
2018-09-06T12:30:46.680Z,82.95
2018-09-06T12:31:46.802Z,81.54
2018-09-06T12:32:46.654Z,82.64
2018-09-06T12:33:46.652Z,82.64
2018-09-06T12:34:46.691Z,82.81
2018-09-06T12:35:46.633Z,82.60
2018-09-06T12:36:46.663Z,81.60
2018-09-06T12:37:46.605Z,81.30
2018-09-06T12:38:46.744Z,81.40
2018-09-06T12:39:46.587Z,81.60
2018-09-06T12:40:46.567Z,80.96
2018-09-06T12:41:46.600Z,81.67
2018-09-06T12:42:46.580Z,81.36
2018-09-06T12:43:46.547Z,81.26
2018-09-06T12:44:46.523Z,80.82
2018-09-06T12:45:46.510Z,80.62
2018-09-06T12:46:46.502Z,80.68
2018-09-06T12:47:46.529Z,80.68
2018-09-06T12:48:46.477Z,80.74
2018-09-06T12:49:46.499Z,80.68
2018-09-06T12:50:46.463Z,80.35
2018-09-06T12:51:46.444Z,79.54
2018-09-06T12:52:46.432Z,78.80
2018-09-06T12:53:46.459Z,77.60